sensor_id;sensor_type;location;lat;lon;timestamp;pressure;altitude;pressure_sealevel;temperature;humidity
26699;BME280;14313;50.892;13.756;2022-09-09T00:00:24;97393.84;;;20.00;63.09
26699;BME280;14313;50.892;13.756;2022-09-09T00:03:14;97394.38;;;20.09;62.84
26699;BME280;14313;50.892;13.756;2022-09-09T00:05:57;97399.44;;;19.92;63.20
26699;BME280;14313;50.892;13.756;2022-09-09T00:08:46;97400.66;;;19.96;62.80
26699;BME280;14313;50.892;13.756;2022-09-09T00:11:24;97396.50;;;20.00;62.69
26699;BME280;14313;50.892;13.756;2022-09-09T00:13:56;97396.84;;;20.10;62.28
26699;BME280;14313;50.892;13.756;2022-09-09T00:16:27;97390.53;;;19.98;62.85
26699;BME280;14313;50.892;13.756;2022-09-09T00:19:38;97382.63;;;20.10;62.32
26699;BME280;14313;50.892;13.756;2022-09-09T00:22:19;97392.25;;;19.92;63.34
26699;BME280;14313;50.892;13.756;2022-09-09T00:24:49;97386.56;;;19.82;63.65
26699;BME280;14313;50.892;13.756;2022-09-09T00:30:24;97378.53;;;19.82;63.86
26699;BME280;14313;50.892;13.756;2022-09-09T00:32:54;97379.31;;;19.65;63.82
26699;BME280;14313;50.892;13.756;2022-09-09T00:35:34;97382.75;;;19.72;63.67
26699;BME280;14313;50.892;13.756;2022-09-09T00:38:10;97387.06;;;19.73;63.71
26699;BME280;14313;50.892;13.756;2022-09-09T00:43:28;97386.41;;;19.77;63.79
26699;BME280;14313;50.892;13.756;2022-09-09T00:52:14;97389.19;;;19.89;62.82
26699;BME280;14313;50.892;13.756;2022-09-09T01:02:58;97391.25;;;19.87;63.09
26699;BME280;14313;50.892;13.756;2022-09-09T01:13:55;97387.06;;;19.48;65.78
26699;BME280;14313;50.892;13.756;2022-09-09T01:16:26;97399.28;;;19.24;68.13
26699;BME280;14313;50.892;13.756;2022-09-09T01:18:54;97395.91;;;19.04;69.10
26699;BME280;14313;50.892;13.756;2022-09-09T01:21:46;97402.72;;;18.93;69.23
26699;BME280;14313;50.892;13.756;2022-09-09T01:24:21;97397.91;;;18.77;70.23
26699;BME280;14313;50.892;13.756;2022-09-09T01:27:12;97402.88;;;18.67;70.30
26699;BME280;14313;50.892;13.756;2022-09-09T01:29:39;97397.53;;;18.60;71.27
26699;BME280;14313;50.892;13.756;2022-09-09T01:32:37;97397.13;;;18.50;71.44
26699;BME280;14313;50.892;13.756;2022-09-09T01:35:05;97397.16;;;18.44;72.72
26699;BME280;14313;50.892;13.756;2022-09-09T01:37:33;97386.28;;;18.32;73.53
26699;BME280;14313;50.892;13.756;2022-09-09T01:39:58;97397.41;;;18.22;74.42
26699;BME280;14313;50.892;13.756;2022-09-09T01:42:24;97389.81;;;18.26;74.19
26699;BME280;14313;50.892;13.756;2022-09-09T01:44:50;97394.97;;;18.08;74.92
26699;BME280;14313;50.892;13.756;2022-09-09T01:47:16;97392.13;;;17.89;76.03
26699;BME280;14313;50.892;13.756;2022-09-09T01:50:16;97385.13;;;17.88;75.53
26699;BME280;14313;50.892;13.756;2022-09-09T01:52:44;97388.41;;;17.84;75.79
26699;BME280;14313;50.892;13.756;2022-09-09T01:55:12;97385.31;;;17.80;75.69
26699;BME280;14313;50.892;13.756;2022-09-09T01:57:50;97382.06;;;17.72;76.22
26699;BME280;14313;50.892;13.756;2022-09-09T02:00:19;97380.63;;;17.69;76.04
26699;BME280;14313;50.892;13.756;2022-09-09T02:08:27;97380.78;;;17.55;77.23
26699;BME280;14313;50.892;13.756;2022-09-09T02:11:11;97379.56;;;17.51;77.16
26699;BME280;14313;50.892;13.756;2022-09-09T02:13:46;97378.72;;;17.37;76.47
26699;BME280;14313;50.892;13.756;2022-09-09T02:16:22;97378.09;;;17.35;77.46
26699;BME280;14313;50.892;13.756;2022-09-09T02:19:00;97376.88;;;17.31;77.31
26699;BME280;14313;50.892;13.756;2022-09-09T02:21:37;97378.09;;;17.35;77.02
26699;BME280;14313;50.892;13.756;2022-09-09T02:24:05;97389.59;;;17.35;77.08
26699;BME280;14313;50.892;13.756;2022-09-09T02:26:40;97382.19;;;17.31;77.64
26699;BME280;14313;50.892;13.756;2022-09-09T02:29:28;97387.31;;;17.26;77.17
26699;BME280;14313;50.892;13.756;2022-09-09T02:31:59;97377.66;;;17.25;76.95
26699;BME280;14313;50.892;13.756;2022-09-09T02:34:33;97383.00;;;17.18;77.65
26699;BME280;14313;50.892;13.756;2022-09-09T02:37:00;97380.75;;;17.22;77.33
26699;BME280;14313;50.892;13.756;2022-09-09T02:39:28;97386.06;;;17.15;77.16
26699;BME280;14313;50.892;13.756;2022-09-09T02:41:53;97377.84;;;17.10;77.89
26699;BME280;14313;50.892;13.756;2022-09-09T02:44:26;97385.81;;;16.97;78.07
26699;BME280;14313;50.892;13.756;2022-09-09T02:47:03;97384.19;;;16.96;78.17
26699;BME280;14313;50.892;13.756;2022-09-09T02:49:55;97392.53;;;16.93;78.42
26699;BME280;14313;50.892;13.756;2022-09-09T02:55:35;97384.72;;;16.72;78.76
26699;BME280;14313;50.892;13.756;2022-09-09T02:58:05;97384.72;;;16.72;78.79
26699;BME280;14313;50.892;13.756;2022-09-09T03:00:33;97384.69;;;16.65;78.60
26699;BME280;14313;50.892;13.756;2022-09-09T03:03:05;97384.69;;;16.65;78.37
26699;BME280;14313;50.892;13.756;2022-09-09T03:05:32;97380.78;;;16.68;78.86
26699;BME280;14313;50.892;13.756;2022-09-09T03:07:58;97385.22;;;16.54;78.84
26699;BME280;14313;50.892;13.756;2022-09-09T03:10:25;97385.88;;;16.62;78.41
26699;BME280;14313;50.892;13.756;2022-09-09T03:12:50;97385.88;;;16.62;78.30
26699;BME280;14313;50.892;13.756;2022-09-09T03:15:16;97387.88;;;16.54;78.56
26699;BME280;14313;50.892;13.756;2022-09-09T03:17:42;97393.00;;;16.55;78.52
26699;BME280;14313;50.892;13.756;2022-09-09T03:20:08;97395.03;;;16.53;78.72
26699;BME280;14313;50.892;13.756;2022-09-09T03:22:35;97386.94;;;16.61;78.70
26699;BME280;14313;50.892;13.756;2022-09-09T03:25:01;97384.44;;;16.60;79.11
26699;BME280;14313;50.892;13.756;2022-09-09T03:27:29;97388.78;;;16.68;78.52
26699;BME280;14313;50.892;13.756;2022-09-09T03:29:55;97385.50;;;16.66;77.35
26699;BME280;14313;50.892;13.756;2022-09-09T03:32:23;97383.44;;;16.68;78.03
26699;BME280;14313;50.892;13.756;2022-09-09T03:34:52;97383.66;;;16.66;78.31
26699;BME280;14313;50.892;13.756;2022-09-09T03:37:18;97386.50;;;16.65;78.73
26699;BME280;14313;50.892;13.756;2022-09-09T03:39:44;97385.88;;;16.62;78.41
26699;BME280;14313;50.892;13.756;2022-09-09T03:42:13;97380.53;;;16.56;78.82
26699;BME280;14313;50.892;13.756;2022-09-09T03:44:40;97381.72;;;16.53;79.25
26699;BME280;14313;50.892;13.756;2022-09-09T03:47:07;97383.19;;;16.56;79.27
26699;BME280;14313;50.892;13.756;2022-09-09T03:49:33;97386.00;;;16.48;78.94
26699;BME280;14313;50.892;13.756;2022-09-09T03:51:59;97388.06;;;16.52;78.99
26699;BME280;14313;50.892;13.756;2022-09-09T03:54:26;97386.84;;;16.55;78.52
26699;BME280;14313;50.892;13.756;2022-09-09T03:56:52;97388.53;;;16.62;77.70
26699;BME280;14313;50.892;13.756;2022-09-09T03:59:18;97385.84;;;16.56;78.48
26699;BME280;14313;50.892;13.756;2022-09-09T04:01:46;97386.44;;;16.51;78.30
26699;BME280;14313;50.892;13.756;2022-09-09T04:04:12;97387.84;;;16.47;78.91
26699;BME280;14313;50.892;13.756;2022-09-09T04:06:37;97388.28;;;16.51;78.26
26699;BME280;14313;50.892;13.756;2022-09-09T04:09:03;97389.72;;;16.53;78.76
26699;BME280;14313;50.892;13.756;2022-09-09T04:11:29;97398.53;;;16.54;79.32
26699;BME280;14313;50.892;13.756;2022-09-09T04:13:57;97395.22;;;16.52;78.58
26699;BME280;14313;50.892;13.756;2022-09-09T04:16:22;97391.91;;;16.43;78.71
26699;BME280;14313;50.892;13.756;2022-09-09T04:18:48;97385.53;;;16.38;79.11
26699;BME280;14313;50.892;13.756;2022-09-09T04:21:15;97391.44;;;16.33;79.38
26699;BME280;14313;50.892;13.756;2022-09-09T04:23:41;97388.66;;;16.48;78.56
26699;BME280;14313;50.892;13.756;2022-09-09T04:26:08;97382.72;;;16.46;78.29
26699;BME280;14313;50.892;13.756;2022-09-09T04:28:35;97389.47;;;16.48;78.97
26699;BME280;14313;50.892;13.756;2022-09-09T04:31:10;97393.44;;;16.59;78.85
26699;BME280;14313;50.892;13.756;2022-09-09T04:33:39;97405.19;;;16.71;78.64
26699;BME280;14313;50.892;13.756;2022-09-09T04:36:05;97402.31;;;16.66;78.13
26699;BME280;14313;50.892;13.756;2022-09-09T04:38:31;97394.69;;;16.63;78.40
26699;BME280;14313;50.892;13.756;2022-09-09T04:40:56;97404.56;;;16.69;77.73
26699;BME280;14313;50.892;13.756;2022-09-09T04:43:22;97399.75;;;16.58;78.28
26699;BME280;14313;50.892;13.756;2022-09-09T04:45:49;97405.34;;;16.63;78.15
26699;BME280;14313;50.892;13.756;2022-09-09T04:48:19;97397.81;;;16.73;77.92
26699;BME280;14313;50.892;13.756;2022-09-09T04:51:06;97410.53;;;16.78;77.99
26699;BME280;14313;50.892;13.756;2022-09-09T04:53:32;97405.22;;;16.84;77.85
26699;BME280;14313;50.892;13.756;2022-09-09T04:56:04;97412.25;;;16.92;77.61
26699;BME280;14313;50.892;13.756;2022-09-09T04:58:33;97397.72;;;17.01;77.61
26699;BME280;14313;50.892;13.756;2022-09-09T05:01:05;97403.69;;;17.10;77.40
26699;BME280;14313;50.892;13.756;2022-09-09T05:03:31;97400.41;;;17.14;77.11
26699;BME280;14313;50.892;13.756;2022-09-09T05:06:08;97415.38;;;17.15;78.00
26699;BME280;14313;50.892;13.756;2022-09-09T05:08:36;97414.34;;;17.16;77.85
26699;BME280;14313;50.892;13.756;2022-09-09T05:11:03;97407.44;;;17.28;78.14
26699;BME280;14313;50.892;13.756;2022-09-09T05:13:29;97415.19;;;17.30;77.34
26699;BME280;14313;50.892;13.756;2022-09-09T05:15:56;97412.56;;;17.43;76.51
26699;BME280;14313;50.892;13.756;2022-09-09T05:18:22;97417.31;;;17.54;75.47
26699;BME280;14313;50.892;13.756;2022-09-09T05:20:48;97414.03;;;17.65;76.06
26699;BME280;14313;50.892;13.756;2022-09-09T05:23:14;97409.97;;;17.69;75.87
26699;BME280;14313;50.892;13.756;2022-09-09T05:25:40;97416.94;;;17.90;75.35
26699;BME280;14313;50.892;13.756;2022-09-09T05:28:08;97419.63;;;17.90;75.69
26699;BME280;14313;50.892;13.756;2022-09-09T05:30:34;97414.47;;;18.02;75.91
26699;BME280;14313;50.892;13.756;2022-09-09T05:33:01;97417.31;;;18.07;75.68
26699;BME280;14313;50.892;13.756;2022-09-09T05:35:26;97419.56;;;18.16;75.64
26699;BME280;14313;50.892;13.756;2022-09-09T05:37:52;97430.84;;;18.31;74.97
26699;BME280;14313;50.892;13.756;2022-09-09T05:40:18;97436.81;;;18.33;75.67
26699;BME280;14313;50.892;13.756;2022-09-09T05:42:44;97440.88;;;18.43;75.55
26699;BME280;14313;50.892;13.756;2022-09-09T05:45:09;97443.94;;;18.53;75.58
26699;BME280;14313;50.892;13.756;2022-09-09T05:47:36;97446.66;;;18.59;75.20
26699;BME280;14313;50.892;13.756;2022-09-09T05:50:04;97444.59;;;18.61;75.64
26699;BME280;14313;50.892;13.756;2022-09-09T05:52:29;97448.69;;;18.64;76.20
26699;BME280;14313;50.892;13.756;2022-09-09T05:54:57;97448.03;;;18.82;75.55
26699;BME280;14313;50.892;13.756;2022-09-09T05:57:22;97447.31;;;18.99;75.44
26699;BME280;14313;50.892;13.756;2022-09-09T05:59:49;97449.16;;;19.05;74.64
26699;BME280;14313;50.892;13.756;2022-09-09T06:02:15;97447.28;;;19.12;74.73
26699;BME280;14313;50.892;13.756;2022-09-09T06:04:40;97450.72;;;19.20;74.29
26699;BME280;14313;50.892;13.756;2022-09-09T06:07:06;97452.69;;;19.44;73.02
26699;BME280;14313;50.892;13.756;2022-09-09T06:09:32;97453.91;;;19.48;73.38
26699;BME280;14313;50.892;13.756;2022-09-09T06:11:57;97445.03;;;19.54;73.59
26699;BME280;14313;50.892;13.756;2022-09-09T06:14:23;97445.09;;;19.72;72.88
26699;BME280;14313;50.892;13.756;2022-09-09T06:16:51;97438.56;;;19.68;71.52
26699;BME280;14313;50.892;13.756;2022-09-09T06:19:20;97434.09;;;19.87;68.12
26699;BME280;14313;50.892;13.756;2022-09-09T06:21:46;97441.41;;;20.23;68.07
26699;BME280;14313;50.892;13.756;2022-09-09T06:24:13;97437.16;;;20.58;68.71
26699;BME280;14313;50.892;13.756;2022-09-09T06:26:43;97447.28;;;20.74;70.23
26699;BME280;14313;50.892;13.756;2022-09-09T06:29:15;97450.63;;;20.88;68.29
26699;BME280;14313;50.892;13.756;2022-09-09T06:31:41;97447.50;;;21.09;67.34
26699;BME280;14313;50.892;13.756;2022-09-09T06:34:13;97446.53;;;21.22;67.21
26699;BME280;14313;50.892;13.756;2022-09-09T06:36:41;97444.56;;;21.29;67.14
26699;BME280;14313;50.892;13.756;2022-09-09T06:39:08;97445.44;;;21.41;65.92
26699;BME280;14313;50.892;13.756;2022-09-09T06:41:36;97447.28;;;21.59;63.09
26699;BME280;14313;50.892;13.756;2022-09-09T06:44:06;97452.09;;;21.80;63.07
26699;BME280;14313;50.892;13.756;2022-09-09T06:46:38;97444.47;;;20.88;64.63
26699;BME280;14313;50.892;13.756;2022-09-09T06:49:04;97444.34;;;21.49;64.84
26699;BME280;14313;50.892;13.756;2022-09-09T06:51:33;97448.84;;;21.00;64.36
26699;BME280;14313;50.892;13.756;2022-09-09T06:54:00;97448.09;;;21.30;63.45
26699;BME280;14313;50.892;13.756;2022-09-09T06:56:30;97447.38;;;21.52;63.25
26699;BME280;14313;50.892;13.756;2022-09-09T06:58:58;97446.19;;;21.18;64.54
26699;BME280;14313;50.892;13.756;2022-09-09T07:01:29;97448.97;;;21.42;64.38
26699;BME280;14313;50.892;13.756;2022-09-09T07:03:59;97446.34;;;21.65;63.92
26699;BME280;14313;50.892;13.756;2022-09-09T07:06:36;97454.41;;;21.95;62.83
26699;BME280;14313;50.892;13.756;2022-09-09T07:09:06;97441.94;;;21.70;64.26
26699;BME280;14313;50.892;13.756;2022-09-09T07:11:43;97443.53;;;22.01;63.76
26699;BME280;14313;50.892;13.756;2022-09-09T07:14:11;97444.47;;;22.07;63.36
26699;BME280;14313;50.892;13.756;2022-09-09T07:16:42;97437.50;;;22.29;63.30
26699;BME280;14313;50.892;13.756;2022-09-09T07:19:08;97442.41;;;22.44;62.54
26699;BME280;14313;50.892;13.756;2022-09-09T07:21:34;97443.22;;;22.44;61.44
26699;BME280;14313;50.892;13.756;2022-09-09T07:24:00;97447.53;;;22.34;60.95
26699;BME280;14313;50.892;13.756;2022-09-09T07:26:28;97442.19;;;23.09;60.87
26699;BME280;14313;50.892;13.756;2022-09-09T07:28:55;97440.09;;;23.51;60.01
26699;BME280;14313;50.892;13.756;2022-09-09T07:31:25;97444.91;;;23.94;59.87
26699;BME280;14313;50.892;13.756;2022-09-09T07:33:52;97449.88;;;23.85;59.00
26699;BME280;14313;50.892;13.756;2022-09-09T07:36:20;97444.31;;;23.92;58.15
26699;BME280;14313;50.892;13.756;2022-09-09T07:38:49;97438.63;;;24.05;59.15
26699;BME280;14313;50.892;13.756;2022-09-09T07:41:23;97433.88;;;24.12;58.71
26699;BME280;14313;50.892;13.756;2022-09-09T07:43:50;97440.25;;;24.39;58.72
26699;BME280;14313;50.892;13.756;2022-09-09T07:46:18;97438.75;;;24.65;59.04
26699;BME280;14313;50.892;13.756;2022-09-09T07:48:49;97443.59;;;25.01;59.11
26699;BME280;14313;50.892;13.756;2022-09-09T07:51:25;97450.47;;;25.36;56.93
26699;BME280;14313;50.892;13.756;2022-09-09T07:53:56;97451.81;;;25.87;56.19
26699;BME280;14313;50.892;13.756;2022-09-09T07:56:26;97446.88;;;24.87;54.62
26699;BME280;14313;50.892;13.756;2022-09-09T07:58:53;97454.00;;;24.93;55.52
26699;BME280;14313;50.892;13.756;2022-09-09T08:01:22;97451.41;;;24.64;55.62
26699;BME280;14313;50.892;13.756;2022-09-09T08:03:56;97452.69;;;24.79;55.16
26699;BME280;14313;50.892;13.756;2022-09-09T08:06:25;97459.72;;;24.96;51.87
26699;BME280;14313;50.892;13.756;2022-09-09T08:08:52;97466.00;;;25.02;51.76
26699;BME280;14313;50.892;13.756;2022-09-09T08:11:18;97465.09;;;24.41;54.09
26699;BME280;14313;50.892;13.756;2022-09-09T08:13:44;97466.69;;;24.92;52.60
26699;BME280;14313;50.892;13.756;2022-09-09T08:16:12;97471.75;;;24.72;53.70
26699;BME280;14313;50.892;13.756;2022-09-09T08:18:39;97473.59;;;24.33;53.04
26699;BME280;14313;50.892;13.756;2022-09-09T08:21:13;97479.59;;;23.90;54.92
26699;BME280;14313;50.892;13.756;2022-09-09T08:23:41;97465.63;;;23.93;54.85
26699;BME280;14313;50.892;13.756;2022-09-09T08:26:13;97475.16;;;24.01;54.64
26699;BME280;14313;50.892;13.756;2022-09-09T08:28:39;97468.91;;;23.95;56.52
26699;BME280;14313;50.892;13.756;2022-09-09T08:31:27;97484.25;;;23.66;57.19
26699;BME280;14313;50.892;13.756;2022-09-09T08:33:57;97476.09;;;23.61;56.78
26699;BME280;14313;50.892;13.756;2022-09-09T08:36:25;97483.41;;;23.49;57.78
26699;BME280;14313;50.892;13.756;2022-09-09T08:38:53;97478.38;;;23.98;56.03
26699;BME280;14313;50.892;13.756;2022-09-09T08:47:14;97478.59;;;24.96;55.64
26699;BME280;14313;50.892;13.756;2022-09-09T08:52:46;97478.72;;;26.04;53.40
26699;BME280;14313;50.892;13.756;2022-09-09T08:55:25;97483.03;;;25.51;54.36
26699;BME280;14313;50.892;13.756;2022-09-09T08:57:57;97479.16;;;25.64;53.71
26699;BME280;14313;50.892;13.756;2022-09-09T09:00:32;97481.38;;;25.72;51.77
26699;BME280;14313;50.892;13.756;2022-09-09T09:03:18;97484.25;;;25.17;54.98
26699;BME280;14313;50.892;13.756;2022-09-09T09:06:21;97495.41;;;25.25;54.37
26699;BME280;14313;50.892;13.756;2022-09-09T09:11:34;97497.31;;;23.58;56.69
26699;BME280;14313;50.892;13.756;2022-09-09T09:14:09;97491.88;;;24.48;55.75
26699;BME280;14313;50.892;13.756;2022-09-09T09:19:13;97503.00;;;24.06;57.70
26699;BME280;14313;50.892;13.756;2022-09-09T09:21:48;97504.69;;;23.51;59.24
26699;BME280;14313;50.892;13.756;2022-09-09T09:24:20;97519.75;;;23.23;61.41
26699;BME280;14313;50.892;13.756;2022-09-09T09:26:46;97511.25;;;22.80;63.91
26699;BME280;14313;50.892;13.756;2022-09-09T09:29:19;97520.78;;;22.29;66.69
26699;BME280;14313;50.892;13.756;2022-09-09T09:31:51;97508.25;;;22.11;66.15
26699;BME280;14313;50.892;13.756;2022-09-09T09:34:17;97505.16;;;21.96;68.10
26699;BME280;14313;50.892;13.756;2022-09-09T09:36:46;97497.84;;;22.03;67.49
26699;BME280;14313;50.892;13.756;2022-09-09T09:39:29;97491.34;;;22.58;66.12
26699;BME280;14313;50.892;13.756;2022-09-09T09:41:58;97483.16;;;22.64;64.27
26699;BME280;14313;50.892;13.756;2022-09-09T09:44:33;97483.19;;;23.39;66.60
26699;BME280;14313;50.892;13.756;2022-09-09T09:47:12;97482.28;;;23.62;67.11
26699;BME280;14313;50.892;13.756;2022-09-09T09:49:39;97485.84;;;23.79;67.18
26699;BME280;14313;50.892;13.756;2022-09-09T09:52:06;97483.66;;;23.93;65.43
26699;BME280;14313;50.892;13.756;2022-09-09T09:54:37;97480.41;;;24.07;63.71
26699;BME280;14313;50.892;13.756;2022-09-09T09:57:08;97483.81;;;25.03;61.44
26699;BME280;14313;50.892;13.756;2022-09-09T09:59:35;97480.16;;;25.58;57.82
26699;BME280;14313;50.892;13.756;2022-09-09T10:05:00;97481.91;;;27.01;55.14
26699;BME280;14313;50.892;13.756;2022-09-09T10:07:26;97474.75;;;26.85;56.43
26699;BME280;14313;50.892;13.756;2022-09-09T10:09:56;97483.28;;;27.09;55.03
26699;BME280;14313;50.892;13.756;2022-09-09T10:12:45;97478.19;;;28.00;55.41
26699;BME280;14313;50.892;13.756;2022-09-09T10:15:29;97471.97;;;28.60;51.41
26699;BME280;14313;50.892;13.756;2022-09-09T10:18:34;97471.31;;;29.09;49.67
26699;BME280;14313;50.892;13.756;2022-09-09T10:24:11;97465.47;;;28.61;49.31
26699;BME280;14313;50.892;13.756;2022-09-09T10:35:03;97443.75;;;30.86;44.55
26699;BME280;14313;50.892;13.756;2022-09-09T10:40:31;97444.94;;;32.40;39.14
26699;BME280;14313;50.892;13.756;2022-09-09T10:48:49;97440.47;;;27.68;46.03
26699;BME280;14313;50.892;13.756;2022-09-09T10:54:42;97436.50;;;27.13;47.88
26699;BME280;14313;50.892;13.756;2022-09-09T10:57:34;97450.16;;;26.45;49.21
26699;BME280;14313;50.892;13.756;2022-09-09T11:00:04;97433.03;;;26.29;51.75
26699;BME280;14313;50.892;13.756;2022-09-09T11:02:33;97431.53;;;26.16;52.70
26699;BME280;14313;50.892;13.756;2022-09-09T11:07:49;97425.97;;;25.64;53.23
26699;BME280;14313;50.892;13.756;2022-09-09T11:10:29;97426.06;;;25.74;53.38
26699;BME280;14313;50.892;13.756;2022-09-09T11:13:04;97427.63;;;26.02;53.13
26699;BME280;14313;50.892;13.756;2022-09-09T11:15:42;97437.56;;;26.23;53.82
26699;BME280;14313;50.892;13.756;2022-09-09T11:18:18;97440.00;;;25.93;55.61
26699;BME280;14313;50.892;13.756;2022-09-09T11:20:46;97440.66;;;26.05;55.44
26699;BME280;14313;50.892;13.756;2022-09-09T11:23:22;97436.66;;;26.13;54.15
26699;BME280;14313;50.892;13.756;2022-09-09T11:25:57;97442.25;;;26.80;52.87
26699;BME280;14313;50.892;13.756;2022-09-09T11:31:57;97438.56;;;25.85;52.63
26699;BME280;14313;50.892;13.756;2022-09-09T11:37:35;97427.38;;;26.04;50.74
26699;BME280;14313;50.892;13.756;2022-09-09T11:42:47;97430.50;;;25.59;52.58
26699;BME280;14313;50.892;13.756;2022-09-09T11:45:24;97425.09;;;25.37;53.35
26699;BME280;14313;50.892;13.756;2022-09-09T11:48:02;97430.84;;;25.19;52.63
26699;BME280;14313;50.892;13.756;2022-09-09T11:50:29;97421.97;;;24.41;55.06
26699;BME280;14313;50.892;13.756;2022-09-09T11:55:39;97429.03;;;25.02;55.12
26699;BME280;14313;50.892;13.756;2022-09-09T11:58:14;97419.41;;;25.33;54.59
26699;BME280;14313;50.892;13.756;2022-09-09T12:00:45;97419.28;;;25.50;53.72
26699;BME280;14313;50.892;13.756;2022-09-09T12:03:40;97413.88;;;26.04;52.88
26699;BME280;14313;50.892;13.756;2022-09-09T12:06:11;97408.41;;;27.35;52.56
26699;BME280;14313;50.892;13.756;2022-09-09T12:08:41;97407.50;;;29.11;47.47
26699;BME280;14313;50.892;13.756;2022-09-09T12:11:08;97411.94;;;30.58;45.17
26699;BME280;14313;50.892;13.756;2022-09-09T12:13:33;97402.28;;;30.13;43.87
26699;BME280;14313;50.892;13.756;2022-09-09T12:15:59;97400.09;;;29.27;45.65
26699;BME280;14313;50.892;13.756;2022-09-09T12:18:34;97400.09;;;28.07;47.77
26699;BME280;14313;50.892;13.756;2022-09-09T12:21:14;97399.72;;;27.28;48.45
26699;BME280;14313;50.892;13.756;2022-09-09T12:23:50;97405.81;;;26.88;48.79
26699;BME280;14313;50.892;13.756;2022-09-09T12:26:52;97396.41;;;27.05;47.84
26699;BME280;14313;50.892;13.756;2022-09-09T12:29:38;97399.94;;;27.06;47.97
26699;BME280;14313;50.892;13.756;2022-09-09T12:32:10;97396.94;;;27.02;47.81
26699;BME280;14313;50.892;13.756;2022-09-09T12:34:39;97401.81;;;26.53;48.78
26699;BME280;14313;50.892;13.756;2022-09-09T12:37:14;97398.16;;;26.80;48.60
26699;BME280;14313;50.892;13.756;2022-09-09T12:39:55;97396.69;;;27.14;46.60
26699;BME280;14313;50.892;13.756;2022-09-09T12:42:21;97400.28;;;27.40;47.53
26699;BME280;14313;50.892;13.756;2022-09-09T12:45:00;97400.19;;;27.04;47.32
26699;BME280;14313;50.892;13.756;2022-09-09T12:47:45;97386.84;;;27.90;45.81
26699;BME280;14313;50.892;13.756;2022-09-09T12:50:25;97382.38;;;28.86;45.38
26699;BME280;14313;50.892;13.756;2022-09-09T12:52:54;97374.56;;;29.28;43.37
26699;BME280;14313;50.892;13.756;2022-09-09T12:55:30;97370.53;;;30.85;40.29
26699;BME280;14313;50.892;13.756;2022-09-09T12:57:57;97368.41;;;31.24;39.21
26699;BME280;14313;50.892;13.756;2022-09-09T13:00:25;97363.81;;;32.73;37.77
26699;BME280;14313;50.892;13.756;2022-09-09T13:02:58;97365.59;;;34.35;35.00
26699;BME280;14313;50.892;13.756;2022-09-09T13:05:42;97355.06;;;34.99;33.17
26699;BME280;14313;50.892;13.756;2022-09-09T13:08:10;97359.81;;;34.67;34.00
26699;BME280;14313;50.892;13.756;2022-09-09T13:10:52;97353.53;;;32.38;35.42
26699;BME280;14313;50.892;13.756;2022-09-09T13:13:27;97353.63;;;30.88;37.70
26699;BME280;14313;50.892;13.756;2022-09-09T13:15:58;97357.81;;;30.57;38.37
26699;BME280;14313;50.892;13.756;2022-09-09T13:18:27;97344.09;;;30.38;38.92
26699;BME280;14313;50.892;13.756;2022-09-09T13:20:53;97351.69;;;31.31;37.53
26699;BME280;14313;50.892;13.756;2022-09-09T13:23:20;97341.88;;;30.16;39.11
26699;BME280;14313;50.892;13.756;2022-09-09T13:26:00;97337.34;;;30.06;40.00
26699;BME280;14313;50.892;13.756;2022-09-09T13:28:28;97348.13;;;29.83;41.00
26699;BME280;14313;50.892;13.756;2022-09-09T13:30:59;97344.56;;;28.99;44.46
26699;BME280;14313;50.892;13.756;2022-09-09T13:33:34;97336.66;;;28.33;46.28
26699;BME280;14313;50.892;13.756;2022-09-09T13:36:09;97338.84;;;28.01;47.40
26699;BME280;14313;50.892;13.756;2022-09-09T13:38:52;97348.63;;;27.72;45.34
26699;BME280;14313;50.892;13.756;2022-09-09T13:43:53;97350.25;;;28.13;43.42
26699;BME280;14313;50.892;13.756;2022-09-09T13:46:40;97348.53;;;30.58;40.91
26699;BME280;14313;50.892;13.756;2022-09-09T13:51:47;97352.59;;;31.08;39.60
26699;BME280;14313;50.892;13.756;2022-09-09T13:54:15;97359.13;;;31.82;36.79
26699;BME280;14313;50.892;13.756;2022-09-09T13:56:41;97352.56;;;31.45;39.23
26699;BME280;14313;50.892;13.756;2022-09-09T13:59:15;97349.56;;;32.76;36.12
26699;BME280;14313;50.892;13.756;2022-09-09T14:01:41;97346.84;;;32.16;36.73
26699;BME280;14313;50.892;13.756;2022-09-09T14:04:07;97351.09;;;30.20;40.25
26699;BME280;14313;50.892;13.756;2022-09-09T14:06:34;97343.66;;;29.19;41.78
26699;BME280;14313;50.892;13.756;2022-09-09T14:09:02;97337.28;;;29.44;41.32
26699;BME280;14313;50.892;13.756;2022-09-09T14:11:27;97333.53;;;28.80;44.03
26699;BME280;14313;50.892;13.756;2022-09-09T14:13:53;97335.72;;;28.68;43.69
26699;BME280;14313;50.892;13.756;2022-09-09T14:16:18;97342.34;;;28.37;44.10
26699;BME280;14313;50.892;13.756;2022-09-09T14:18:44;97341.59;;;28.16;45.32
26699;BME280;14313;50.892;13.756;2022-09-09T14:21:10;97333.16;;;28.03;45.78
26699;BME280;14313;50.892;13.756;2022-09-09T14:23:37;97330.22;;;27.79;46.43
26699;BME280;14313;50.892;13.756;2022-09-09T14:26:04;97336.97;;;27.61;47.31
26699;BME280;14313;50.892;13.756;2022-09-09T14:28:29;97338.59;;;27.57;47.24
26699;BME280;14313;50.892;13.756;2022-09-09T14:30:54;97329.66;;;27.62;46.88
26699;BME280;14313;50.892;13.756;2022-09-09T14:33:20;97323.16;;;27.52;46.13
26699;BME280;14313;50.892;13.756;2022-09-09T14:35:46;97323.41;;;27.56;46.44
26699;BME280;14313;50.892;13.756;2022-09-09T14:38:11;97323.38;;;27.41;46.08
26699;BME280;14313;50.892;13.756;2022-09-09T14:40:38;97334.50;;;27.44;46.17
26699;BME280;14313;50.892;13.756;2022-09-09T14:43:04;97338.09;;;26.78;47.46
26699;BME280;14313;50.892;13.756;2022-09-09T14:45:30;97340.25;;;26.81;47.99
26699;BME280;14313;50.892;13.756;2022-09-09T14:47:56;97340.47;;;26.69;48.48